Terminal Aerodrome Forecast
Issued by NWS Bismarck, ND

Home | Current Version | Previous Version | Text Only | Print | Product List | Glossary On
Versions: 1 2 3 4 5 6 7 8 9 10 11 12 13 14 15 16 17 18 19 20 21 22 23 24 25
741
FTUS43 KBIS 141504 AAC
TAFISN
TAF AMD
KISN 141504Z 1415/1512 23008KT P6SM SCT100 BKN250
     FM150900 26005KT P6SM SCT150
     FM151100 25006KT P6SM BKN090=

USA.gov is the U.S. government's official web portal to all federal, state and local government web resources and services.